Covington, Kentucky
Current Conditions -  °F | °C
As of 2:53 AM on Sunday 23 Nov 2014 (Local Time) from KLUK Reporting Station
Overcast Overcast  
Wind Chill:   Ceiling: 5500
Heat Index:   Visibility: 10mi
Dew Point:   Wind: 0mph
Humidity: 76%   Direction: NA
Pressure: 30.06"   Gusts: NA
Location:  39.08°N, 84.51°W
Report Text: KLUK 230753Z AUTO 00000KT 10SM BKN055 OVC070 07/03 A3006 RMK AO2 SLP179 T00720033
Loading
Personal Weather Stations






























Interactive Weather Map New forecast layout! Learn more

10-Day Weather Forecast

Advertisements
Track Severe Weather on mobile